Terminal Aerodrome Forecast
Issued by NWS

Home | Current Version | Previous Version | Text Only | Print | Product List | Glossary On
Versions: 1 2 3 4 5 6 7 8 9 10 11 12 13 14 15 16
557
FTUS46 KSGX 091120
TAFSNA
TAF
KSNA 091120Z 0912/1012 VRB05KT P6SM SKC
     FM092000 24007KT P6SM SKC WS020/08015KT
     FM100100 VRB04KT P6SM SKC=

USA.gov is the U.S. government's official web portal to all federal, state and local government web resources and services.